sensor_id;sensor_type;location;lat;lon;timestamp;temperature;humidity
70460;DHT22;57920;54.796;9.430;2022-10-18T00:01:25;19.20;60.40
70460;DHT22;57920;54.796;9.430;2022-10-18T00:03:50;19.20;60.40
70460;DHT22;57920;54.796;9.430;2022-10-18T00:06:16;19.20;60.40
70460;DHT22;57920;54.796;9.430;2022-10-18T00:08:41;19.20;60.40
70460;DHT22;57920;54.796;9.430;2022-10-18T00:11:07;19.20;60.30
70460;DHT22;57920;54.796;9.430;2022-10-18T00:13:33;19.20;60.30
70460;DHT22;57920;54.796;9.430;2022-10-18T00:16:02;19.20;60.30
70460;DHT22;57920;54.796;9.430;2022-10-18T00:18:28;19.20;60.30
70460;DHT22;57920;54.796;9.430;2022-10-18T00:21:04;19.20;60.30
70460;DHT22;57920;54.796;9.430;2022-10-18T00:23:31;19.20;60.30
70460;DHT22;57920;54.796;9.430;2022-10-18T00:25:59;19.20;60.30
70460;DHT22;57920;54.796;9.430;2022-10-18T00:28:25;19.20;60.30
70460;DHT22;57920;54.796;9.430;2022-10-18T00:30:50;19.20;60.30
70460;DHT22;57920;54.796;9.430;2022-10-18T00:33:16;19.20;60.20
70460;DHT22;57920;54.796;9.430;2022-10-18T00:35:41;19.20;60.30
70460;DHT22;57920;54.796;9.430;2022-10-18T00:38:07;19.20;60.20
70460;DHT22;57920;54.796;9.430;2022-10-18T00:40:33;19.20;60.20
70460;DHT22;57920;54.796;9.430;2022-10-18T00:42:58;19.20;60.30
70460;DHT22;57920;54.796;9.430;2022-10-18T00:45:24;19.20;60.20
70460;DHT22;57920;54.796;9.430;2022-10-18T00:47:59;19.20;60.20
70460;DHT22;57920;54.796;9.430;2022-10-18T00:50:28;19.20;60.20
70460;DHT22;57920;54.796;9.430;2022-10-18T00:52:56;19.20;60.20
70460;DHT22;57920;54.796;9.430;2022-10-18T00:55:25;19.20;60.20
70460;DHT22;57920;54.796;9.430;2022-10-18T00:57:53;19.20;60.20
70460;DHT22;57920;54.796;9.430;2022-10-18T01:00:20;19.20;60.20
70460;DHT22;57920;54.796;9.430;2022-10-18T01:02:46;19.20;60.20
70460;DHT22;57920;54.796;9.430;2022-10-18T01:05:14;19.20;60.20
70460;DHT22;57920;54.796;9.430;2022-10-18T01:07:55;19.20;60.20
70460;DHT22;57920;54.796;9.430;2022-10-18T01:10:39;19.20;60.20
70460;DHT22;57920;54.796;9.430;2022-10-18T01:16:06;19.20;60.10
70460;DHT22;57920;54.796;9.430;2022-10-18T01:18:56;19.20;60.10
70460;DHT22;57920;54.796;9.430;2022-10-18T01:22:01;19.20;60.20
70460;DHT22;57920;54.796;9.430;2022-10-18T01:32:58;19.20;60.10
70460;DHT22;57920;54.796;9.430;2022-10-18T01:35:35;19.20;60.10
70460;DHT22;57920;54.796;9.430;2022-10-18T01:38:06;19.20;60.10
70460;DHT22;57920;54.796;9.430;2022-10-18T01:40:36;19.20;60.10
70460;DHT22;57920;54.796;9.430;2022-10-18T01:43:03;19.20;60.10
70460;DHT22;57920;54.796;9.430;2022-10-18T01:45:30;19.20;60.10
70460;DHT22;57920;54.796;9.430;2022-10-18T01:47:57;19.20;60.10
70460;DHT22;57920;54.796;9.430;2022-10-18T01:50:31;19.10;60.00
70460;DHT22;57920;54.796;9.430;2022-10-18T01:52:58;19.20;60.00
70460;DHT22;57920;54.796;9.430;2022-10-18T01:55:41;19.20;60.00
70460;DHT22;57920;54.796;9.430;2022-10-18T01:58:20;19.20;60.00
70460;DHT22;57920;54.796;9.430;2022-10-18T02:00:49;19.10;60.00
70460;DHT22;57920;54.796;9.430;2022-10-18T02:03:22;19.10;60.00
70460;DHT22;57920;54.796;9.430;2022-10-18T02:05:57;19.10;60.00
70460;DHT22;57920;54.796;9.430;2022-10-18T02:08:30;19.10;60.00
70460;DHT22;57920;54.796;9.430;2022-10-18T02:11:07;19.10;60.00
70460;DHT22;57920;54.796;9.430;2022-10-18T02:13:39;19.10;60.00
70460;DHT22;57920;54.796;9.430;2022-10-18T02:16:47;19.10;60.00
70460;DHT22;57920;54.796;9.430;2022-10-18T02:19:15;19.10;60.00
70460;DHT22;57920;54.796;9.430;2022-10-18T02:21:45;19.10;60.00
70460;DHT22;57920;54.796;9.430;2022-10-18T02:24:13;19.10;60.00
70460;DHT22;57920;54.796;9.430;2022-10-18T02:26:39;19.10;60.00
70460;DHT22;57920;54.796;9.430;2022-10-18T02:29:05;19.10;60.00
70460;DHT22;57920;54.796;9.430;2022-10-18T02:36:48;19.10;59.80
70460;DHT22;57920;54.796;9.430;2022-10-18T02:39:19;19.10;59.90
70460;DHT22;57920;54.796;9.430;2022-10-18T02:41:46;19.10;59.90
70460;DHT22;57920;54.796;9.430;2022-10-18T02:44:11;19.10;59.90
70460;DHT22;57920;54.796;9.430;2022-10-18T02:46:38;19.10;59.90
70460;DHT22;57920;54.796;9.430;2022-10-18T02:49:04;19.10;59.90
70460;DHT22;57920;54.796;9.430;2022-10-18T02:51:29;19.10;59.80
70460;DHT22;57920;54.796;9.430;2022-10-18T02:53:55;19.10;59.80
70460;DHT22;57920;54.796;9.430;2022-10-18T02:56:20;19.10;59.90
70460;DHT22;57920;54.796;9.430;2022-10-18T02:58:46;19.10;59.80
70460;DHT22;57920;54.796;9.430;2022-10-18T03:01:11;19.10;59.90
70460;DHT22;57920;54.796;9.430;2022-10-18T03:03:37;19.10;59.90
70460;DHT22;57920;54.796;9.430;2022-10-18T03:06:03;19.10;59.90
70460;DHT22;57920;54.796;9.430;2022-10-18T03:08:28;19.10;59.80
70460;DHT22;57920;54.796;9.430;2022-10-18T03:10:54;19.10;59.80
70460;DHT22;57920;54.796;9.430;2022-10-18T03:13:19;19.10;59.80
70460;DHT22;57920;54.796;9.430;2022-10-18T03:15:46;19.10;59.80
70460;DHT22;57920;54.796;9.430;2022-10-18T03:18:12;19.10;59.80
70460;DHT22;57920;54.796;9.430;2022-10-18T03:20:38;19.10;59.80
70460;DHT22;57920;54.796;9.430;2022-10-18T03:23:03;19.10;59.80
70460;DHT22;57920;54.796;9.430;2022-10-18T03:25:29;19.10;59.80
70460;DHT22;57920;54.796;9.430;2022-10-18T03:27:55;19.10;59.80
70460;DHT22;57920;54.796;9.430;2022-10-18T03:30:20;19.10;59.80
70460;DHT22;57920;54.796;9.430;2022-10-18T03:32:46;19.10;59.90
70460;DHT22;57920;54.796;9.430;2022-10-18T03:35:11;19.10;59.90
70460;DHT22;57920;54.796;9.430;2022-10-18T03:37:37;19.10;59.80
70460;DHT22;57920;54.796;9.430;2022-10-18T03:40:03;19.10;59.80
70460;DHT22;57920;54.796;9.430;2022-10-18T03:42:29;19.10;59.80
70460;DHT22;57920;54.796;9.430;2022-10-18T03:44:54;19.10;59.80
70460;DHT22;57920;54.796;9.430;2022-10-18T03:47:20;19.10;59.90
70460;DHT22;57920;54.796;9.430;2022-10-18T03:49:45;19.10;59.80
70460;DHT22;57920;54.796;9.430;2022-10-18T03:52:11;19.10;59.80
70460;DHT22;57920;54.796;9.430;2022-10-18T03:54:36;19.10;59.80
70460;DHT22;57920;54.796;9.430;2022-10-18T03:57:02;19.10;59.80
70460;DHT22;57920;54.796;9.430;2022-10-18T03:59:28;19.10;59.80
70460;DHT22;57920;54.796;9.430;2022-10-18T04:01:53;19.10;59.80
70460;DHT22;57920;54.796;9.430;2022-10-18T04:04:19;19.10;59.80
70460;DHT22;57920;54.796;9.430;2022-10-18T04:06:44;19.10;59.70
70460;DHT22;57920;54.796;9.430;2022-10-18T04:09:10;19.10;59.80
70460;DHT22;57920;54.796;9.430;2022-10-18T04:11:36;19.10;59.80
70460;DHT22;57920;54.796;9.430;2022-10-18T04:14:02;19.10;59.90
70460;DHT22;57920;54.796;9.430;2022-10-18T04:16:27;19.10;59.80
70460;DHT22;57920;54.796;9.430;2022-10-18T04:18:53;19.10;59.80
70460;DHT22;57920;54.796;9.430;2022-10-18T04:21:18;19.10;59.80
70460;DHT22;57920;54.796;9.430;2022-10-18T04:23:47;19.10;59.80
70460;DHT22;57920;54.796;9.430;2022-10-18T04:26:13;19.10;59.90
70460;DHT22;57920;54.796;9.430;2022-10-18T04:28:38;19.10;59.90
70460;DHT22;57920;54.796;9.430;2022-10-18T04:31:05;19.10;59.90
70460;DHT22;57920;54.796;9.430;2022-10-18T04:33:31;19.10;59.80
70460;DHT22;57920;54.796;9.430;2022-10-18T04:35:56;19.10;59.90
70460;DHT22;57920;54.796;9.430;2022-10-18T04:38:22;19.10;59.90
70460;DHT22;57920;54.796;9.430;2022-10-18T04:40:47;19.10;59.90
70460;DHT22;57920;54.796;9.430;2022-10-18T04:43:13;19.10;59.90
70460;DHT22;57920;54.796;9.430;2022-10-18T04:45:39;19.10;60.00
70460;DHT22;57920;54.796;9.430;2022-10-18T04:48:04;19.10;59.90
70460;DHT22;57920;54.796;9.430;2022-10-18T04:50:30;19.10;60.00
70460;DHT22;57920;54.796;9.430;2022-10-18T04:52:56;19.10;60.00
70460;DHT22;57920;54.796;9.430;2022-10-18T04:55:21;19.10;60.00
70460;DHT22;57920;54.796;9.430;2022-10-18T04:57:47;19.10;60.00
70460;DHT22;57920;54.796;9.430;2022-10-18T05:00:13;19.10;60.00
70460;DHT22;57920;54.796;9.430;2022-10-18T05:02:39;19.10;60.00
70460;DHT22;57920;54.796;9.430;2022-10-18T05:05:04;19.10;60.00
70460;DHT22;57920;54.796;9.430;2022-10-18T05:07:30;19.10;60.00
70460;DHT22;57920;54.796;9.430;2022-10-18T05:09:55;19.10;60.00
70460;DHT22;57920;54.796;9.430;2022-10-18T05:12:21;19.10;60.00
70460;DHT22;57920;54.796;9.430;2022-10-18T05:14:47;19.10;59.90
70460;DHT22;57920;54.796;9.430;2022-10-18T05:17:12;19.10;59.90
70460;DHT22;57920;54.796;9.430;2022-10-18T05:19:38;19.10;59.90
70460;DHT22;57920;54.796;9.430;2022-10-18T05:22:04;19.10;59.90
70460;DHT22;57920;54.796;9.430;2022-10-18T05:24:29;19.10;59.90
70460;DHT22;57920;54.796;9.430;2022-10-18T05:26:56;19.10;59.90
70460;DHT22;57920;54.796;9.430;2022-10-18T05:29:21;19.10;59.90
70460;DHT22;57920;54.796;9.430;2022-10-18T05:31:47;19.10;59.90
70460;DHT22;57920;54.796;9.430;2022-10-18T05:34:13;19.10;59.90
70460;DHT22;57920;54.796;9.430;2022-10-18T05:36:39;19.10;59.90
70460;DHT22;57920;54.796;9.430;2022-10-18T05:39:05;19.10;59.90
70460;DHT22;57920;54.796;9.430;2022-10-18T05:41:30;19.10;59.90
70460;DHT22;57920;54.796;9.430;2022-10-18T05:43:56;19.10;60.00
70460;DHT22;57920;54.796;9.430;2022-10-18T05:46:22;19.20;60.40
70460;DHT22;57920;54.796;9.430;2022-10-18T05:49:12;19.20;60.70
70460;DHT22;57920;54.796;9.430;2022-10-18T05:51:38;19.20;60.50
70460;DHT22;57920;54.796;9.430;2022-10-18T05:54:04;19.30;60.10
70460;DHT22;57920;54.796;9.430;2022-10-18T05:56:29;19.40;60.10
70460;DHT22;57920;54.796;9.430;2022-10-18T05:58:55;19.30;60.00
70460;DHT22;57920;54.796;9.430;2022-10-18T06:01:21;19.30;60.40
70460;DHT22;57920;54.796;9.430;2022-10-18T06:03:47;19.30;61.10
70460;DHT22;57920;54.796;9.430;2022-10-18T06:06:13;19.30;61.80
70460;DHT22;57920;54.796;9.430;2022-10-18T06:08:40;19.30;61.30
70460;DHT22;57920;54.796;9.430;2022-10-18T06:11:11;19.40;61.60
70460;DHT22;57920;54.796;9.430;2022-10-18T06:13:47;19.40;61.90
70460;DHT22;57920;54.796;9.430;2022-10-18T06:16:15;19.50;61.40
70460;DHT22;57920;54.796;9.430;2022-10-18T06:19:05;19.50;61.40
70460;DHT22;57920;54.796;9.430;2022-10-18T06:21:31;19.50;61.30
70460;DHT22;57920;54.796;9.430;2022-10-18T06:23:57;19.50;61.50
70460;DHT22;57920;54.796;9.430;2022-10-18T06:26:25;19.50;61.30
70460;DHT22;57920;54.796;9.430;2022-10-18T06:28:51;19.50;61.30
70460;DHT22;57920;54.796;9.430;2022-10-18T06:31:17;19.50;61.30
70460;DHT22;57920;54.796;9.430;2022-10-18T06:33:43;19.50;61.50
70460;DHT22;57920;54.796;9.430;2022-10-18T06:36:12;19.50;61.60
70460;DHT22;57920;54.796;9.430;2022-10-18T06:38:38;19.50;61.40
70460;DHT22;57920;54.796;9.430;2022-10-18T06:41:04;19.50;61.40
70460;DHT22;57920;54.796;9.430;2022-10-18T06:43:30;19.50;61.60
70460;DHT22;57920;54.796;9.430;2022-10-18T06:45:56;19.50;61.20
70460;DHT22;57920;54.796;9.430;2022-10-18T06:48:22;19.50;61.30
70460;DHT22;57920;54.796;9.430;2022-10-18T06:50:58;19.50;61.20
70460;DHT22;57920;54.796;9.430;2022-10-18T06:53:25;19.50;61.20
70460;DHT22;57920;54.796;9.430;2022-10-18T06:55:51;19.50;61.10
70460;DHT22;57920;54.796;9.430;2022-10-18T06:58:17;19.50;61.10
70460;DHT22;57920;54.796;9.430;2022-10-18T07:00:42;19.60;61.60
70460;DHT22;57920;54.796;9.430;2022-10-18T07:03:10;19.60;61.40
70460;DHT22;57920;54.796;9.430;2022-10-18T07:05:35;19.60;61.60
70460;DHT22;57920;54.796;9.430;2022-10-18T07:08:01;19.60;61.50
70460;DHT22;57920;54.796;9.430;2022-10-18T07:10:27;19.60;61.30
70460;DHT22;57920;54.796;9.430;2022-10-18T07:12:52;19.60;61.30
70460;DHT22;57920;54.796;9.430;2022-10-18T07:15:18;19.60;61.60
70460;DHT22;57920;54.796;9.430;2022-10-18T07:17:46;19.50;61.40
70460;DHT22;57920;54.796;9.430;2022-10-18T07:23:37;19.50;61.00
70460;DHT22;57920;54.796;9.430;2022-10-18T07:26:20;19.50;61.30
70460;DHT22;57920;54.796;9.430;2022-10-18T07:28:53;19.60;61.10
70460;DHT22;57920;54.796;9.430;2022-10-18T07:31:20;19.60;61.00
70460;DHT22;57920;54.796;9.430;2022-10-18T07:33:46;19.60;60.90
70460;DHT22;57920;54.796;9.430;2022-10-18T07:36:12;19.60;61.40
70460;DHT22;57920;54.796;9.430;2022-10-18T07:38:38;19.70;60.90
70460;DHT22;57920;54.796;9.430;2022-10-18T07:41:05;19.70;61.20
70460;DHT22;57920;54.796;9.430;2022-10-18T07:43:32;19.70;61.40
70460;DHT22;57920;54.796;9.430;2022-10-18T07:45:59;19.70;61.90
70460;DHT22;57920;54.796;9.430;2022-10-18T07:48:25;19.70;61.30
70460;DHT22;57920;54.796;9.430;2022-10-18T07:50:51;19.70;61.20
70460;DHT22;57920;54.796;9.430;2022-10-18T07:53:17;19.70;61.00
70460;DHT22;57920;54.796;9.430;2022-10-18T07:55:42;19.70;61.10
70460;DHT22;57920;54.796;9.430;2022-10-18T07:58:09;19.70;61.00
70460;DHT22;57920;54.796;9.430;2022-10-18T08:00:35;19.80;61.10
70460;DHT22;57920;54.796;9.430;2022-10-18T08:03:01;19.80;61.10
70460;DHT22;57920;54.796;9.430;2022-10-18T08:05:27;19.80;61.10
70460;DHT22;57920;54.796;9.430;2022-10-18T08:07:54;19.90;61.10
70460;DHT22;57920;54.796;9.430;2022-10-18T08:10:21;19.90;61.20
70460;DHT22;57920;54.796;9.430;2022-10-18T08:12:48;19.90;61.10
70460;DHT22;57920;54.796;9.430;2022-10-18T08:15:14;19.90;61.20
70460;DHT22;57920;54.796;9.430;2022-10-18T08:17:40;19.90;61.20
70460;DHT22;57920;54.796;9.430;2022-10-18T08:23:30;19.90;60.80
70460;DHT22;57920;54.796;9.430;2022-10-18T08:25:55;19.90;60.80
70460;DHT22;57920;54.796;9.430;2022-10-18T08:28:21;19.90;61.00
70460;DHT22;57920;54.796;9.430;2022-10-18T08:30:47;19.90;61.00
70460;DHT22;57920;54.796;9.430;2022-10-18T08:33:12;19.80;60.90
70460;DHT22;57920;54.796;9.430;2022-10-18T08:35:38;19.80;60.70
70460;DHT22;57920;54.796;9.430;2022-10-18T08:38:04;19.70;60.70
70460;DHT22;57920;54.796;9.430;2022-10-18T08:40:42;19.70;60.60
70460;DHT22;57920;54.796;9.430;2022-10-18T08:45:42;19.70;60.50
70460;DHT22;57920;54.796;9.430;2022-10-18T08:51:38;19.70;60.50
70460;DHT22;57920;54.796;9.430;2022-10-18T08:54:12;19.70;60.40
70460;DHT22;57920;54.796;9.430;2022-10-18T08:56:39;19.70;60.40
70460;DHT22;57920;54.796;9.430;2022-10-18T08:59:11;19.70;60.30
70460;DHT22;57920;54.796;9.430;2022-10-18T09:09:59;19.70;60.20
70460;DHT22;57920;54.796;9.430;2022-10-18T09:15:39;19.70;60.10
70460;DHT22;57920;54.796;9.430;2022-10-18T09:21:18;19.70;60.00
70460;DHT22;57920;54.796;9.430;2022-10-18T09:24:10;19.70;60.00
70460;DHT22;57920;54.796;9.430;2022-10-18T09:26:43;19.70;60.00
70460;DHT22;57920;54.796;9.430;2022-10-18T09:29:22;19.70;60.10
70460;DHT22;57920;54.796;9.430;2022-10-18T09:32:06;19.80;60.10
70460;DHT22;57920;54.796;9.430;2022-10-18T09:34:43;19.90;60.20
70460;DHT22;57920;54.796;9.430;2022-10-18T09:37:13;19.80;60.10
70460;DHT22;57920;54.796;9.430;2022-10-18T09:39:40;19.90;60.00
70460;DHT22;57920;54.796;9.430;2022-10-18T09:42:17;19.90;60.00
70460;DHT22;57920;54.796;9.430;2022-10-18T09:44:54;19.90;60.00
70460;DHT22;57920;54.796;9.430;2022-10-18T09:47:33;19.90;59.80
70460;DHT22;57920;54.796;9.430;2022-10-18T09:50:05;19.90;59.90
70460;DHT22;57920;54.796;9.430;2022-10-18T09:53:09;20.00;59.80
70460;DHT22;57920;54.796;9.430;2022-10-18T09:58:15;20.00;59.90
70460;DHT22;57920;54.796;9.430;2022-10-18T10:00:47;20.00;59.80
70460;DHT22;57920;54.796;9.430;2022-10-18T10:03:14;19.90;59.70
70460;DHT22;57920;54.796;9.430;2022-10-18T10:05:40;19.90;59.70
70460;DHT22;57920;54.796;9.430;2022-10-18T10:08:06;19.90;59.80
70460;DHT22;57920;54.796;9.430;2022-10-18T10:10:32;20.00;59.90
70460;DHT22;57920;54.796;9.430;2022-10-18T10:15:28;20.00;60.00
70460;DHT22;57920;54.796;9.430;2022-10-18T10:17:57;20.00;60.00
70460;DHT22;57920;54.796;9.430;2022-10-18T10:23:05;20.00;60.20
70460;DHT22;57920;54.796;9.430;2022-10-18T10:25:34;20.00;60.00
70460;DHT22;57920;54.796;9.430;2022-10-18T10:28:06;20.00;60.10
70460;DHT22;57920;54.796;9.430;2022-10-18T10:30:37;20.00;60.00
70460;DHT22;57920;54.796;9.430;2022-10-18T10:33:04;20.00;60.00
70460;DHT22;57920;54.796;9.430;2022-10-18T10:37:58;20.00;59.80
70460;DHT22;57920;54.796;9.430;2022-10-18T10:40:49;20.00;59.70
70460;DHT22;57920;54.796;9.430;2022-10-18T10:43:31;19.90;59.70
70460;DHT22;57920;54.796;9.430;2022-10-18T10:52:00;19.90;59.60
70460;DHT22;57920;54.796;9.430;2022-10-18T10:54:28;19.90;59.70
70460;DHT22;57920;54.796;9.430;2022-10-18T10:59:46;19.90;59.70
70460;DHT22;57920;54.796;9.430;2022-10-18T11:04:45;19.90;59.70
70460;DHT22;57920;54.796;9.430;2022-10-18T11:07:13;19.80;59.60
70460;DHT22;57920;54.796;9.430;2022-10-18T11:09:47;19.80;59.60
70460;DHT22;57920;54.796;9.430;2022-10-18T11:12:35;19.90;59.60
70460;DHT22;57920;54.796;9.430;2022-10-18T11:23:33;19.80;59.50
70460;DHT22;57920;54.796;9.430;2022-10-18T11:39:44;19.90;59.90
70460;DHT22;57920;54.796;9.430;2022-10-18T11:53:27;20.00;59.80
70460;DHT22;57920;54.796;9.430;2022-10-18T11:59:01;20.00;59.80
70460;DHT22;57920;54.796;9.430;2022-10-18T12:01:40;19.90;59.80
70460;DHT22;57920;54.796;9.430;2022-10-18T12:04:26;19.70;59.30
70460;DHT22;57920;54.796;9.430;2022-10-18T12:06:57;19.70;58.00
70460;DHT22;57920;54.796;9.430;2022-10-18T12:09:39;19.70;58.40
70460;DHT22;57920;54.796;9.430;2022-10-18T12:12:13;19.70;58.40
70460;DHT22;57920;54.796;9.430;2022-10-18T12:14:45;19.70;58.00
70460;DHT22;57920;54.796;9.430;2022-10-18T12:17:24;19.80;58.20
70460;DHT22;57920;54.796;9.430;2022-10-18T12:19:52;19.80;58.40
70460;DHT22;57920;54.796;9.430;2022-10-18T12:24:45;19.90;58.60
70460;DHT22;57920;54.796;9.430;2022-10-18T12:27:13;19.90;58.60
70460;DHT22;57920;54.796;9.430;2022-10-18T12:30:06;20.00;58.80
70460;DHT22;57920;54.796;9.430;2022-10-18T12:32:36;20.00;59.20
70460;DHT22;57920;54.796;9.430;2022-10-18T12:35:10;20.00;59.40
70460;DHT22;57920;54.796;9.430;2022-10-18T12:38:13;20.00;59.50
70460;DHT22;57920;54.796;9.430;2022-10-18T12:40:45;20.00;59.40
70460;DHT22;57920;54.796;9.430;2022-10-18T12:43:29;20.00;59.70
70460;DHT22;57920;54.796;9.430;2022-10-18T12:46:00;20.00;60.00
70460;DHT22;57920;54.796;9.430;2022-10-18T12:51:53;20.00;60.10
70460;DHT22;57920;54.796;9.430;2022-10-18T12:54:24;20.00;60.00
70460;DHT22;57920;54.796;9.430;2022-10-18T12:56:51;20.00;59.90
70460;DHT22;57920;54.796;9.430;2022-10-18T13:17:59;20.10;59.30
70460;DHT22;57920;54.796;9.430;2022-10-18T13:20:37;20.10;59.20
70460;DHT22;57920;54.796;9.430;2022-10-18T13:23:31;20.00;59.20
70460;DHT22;57920;54.796;9.430;2022-10-18T13:31:38;20.00;59.00
70460;DHT22;57920;54.796;9.430;2022-10-18T13:37:00;20.00;58.90
70460;DHT22;57920;54.796;9.430;2022-10-18T13:39:26;20.00;58.80
70460;DHT22;57920;54.796;9.430;2022-10-18T13:44:33;20.10;59.00
70460;DHT22;57920;54.796;9.430;2022-10-18T14:04:11;20.10;58.90
70460;DHT22;57920;54.796;9.430;2022-10-18T14:06:15;20.00;58.90
70460;DHT22;57920;54.796;9.430;2022-10-18T14:08:48;20.00;58.90
70460;DHT22;57920;54.796;9.430;2022-10-18T14:11:38;20.00;58.80
70460;DHT22;57920;54.796;9.430;2022-10-18T14:14:16;20.00;58.80
70460;DHT22;57920;54.796;9.430;2022-10-18T14:16:49;20.00;58.80
70460;DHT22;57920;54.796;9.430;2022-10-18T14:19:32;20.00;58.80
70460;DHT22;57920;54.796;9.430;2022-10-18T14:22:10;20.00;58.80
70460;DHT22;57920;54.796;9.430;2022-10-18T14:24:41;19.90;58.80
70460;DHT22;57920;54.796;9.430;2022-10-18T14:29:43;19.90;58.90
70460;DHT22;57920;54.796;9.430;2022-10-18T14:32:19;19.90;58.90
70460;DHT22;57920;54.796;9.430;2022-10-18T14:34:46;19.80;58.90
70460;DHT22;57920;54.796;9.430;2022-10-18T14:37:35;19.80;58.90
70460;DHT22;57920;54.796;9.430;2022-10-18T14:40:02;19.80;58.90
70460;DHT22;57920;54.796;9.430;2022-10-18T14:42:28;19.80;58.90
70460;DHT22;57920;54.796;9.430;2022-10-18T14:44:54;19.80;58.90
70460;DHT22;57920;54.796;9.430;2022-10-18T14:47:25;19.70;58.90
70460;DHT22;57920;54.796;9.430;2022-10-18T14:49:52;19.70;58.90
70460;DHT22;57920;54.796;9.430;2022-10-18T14:52:29;19.70;58.90
70460;DHT22;57920;54.796;9.430;2022-10-18T14:54:56;19.70;58.90
70460;DHT22;57920;54.796;9.430;2022-10-18T14:57:26;19.70;59.00
70460;DHT22;57920;54.796;9.430;2022-10-18T14:59:57;19.70;59.00
70460;DHT22;57920;54.796;9.430;2022-10-18T15:02:25;19.70;59.00
70460;DHT22;57920;54.796;9.430;2022-10-18T15:07:21;19.70;59.00
70460;DHT22;57920;54.796;9.430;2022-10-18T15:09:47;19.70;59.00
70460;DHT22;57920;54.796;9.430;2022-10-18T15:12:14;19.70;59.00
70460;DHT22;57920;54.796;9.430;2022-10-18T15:14:40;19.70;59.00
70460;DHT22;57920;54.796;9.430;2022-10-18T15:17:11;19.60;59.00
70460;DHT22;57920;54.796;9.430;2022-10-18T15:20:03;19.60;58.90
70460;DHT22;57920;54.796;9.430;2022-10-18T15:22:31;19.60;58.90
70460;DHT22;57920;54.796;9.430;2022-10-18T15:28:01;19.60;58.90
70460;DHT22;57920;54.796;9.430;2022-10-18T15:30:38;19.60;58.90
70460;DHT22;57920;54.796;9.430;2022-10-18T15:33:07;19.60;58.80
70460;DHT22;57920;54.796;9.430;2022-10-18T15:35:36;19.60;58.80
70460;DHT22;57920;54.796;9.430;2022-10-18T15:40:40;19.50;58.70
70460;DHT22;57920;54.796;9.430;2022-10-18T15:45:57;19.50;58.70
70460;DHT22;57920;54.796;9.430;2022-10-18T15:48:41;19.50;58.70
70460;DHT22;57920;54.796;9.430;2022-10-18T15:51:11;19.50;58.70
70460;DHT22;57920;54.796;9.430;2022-10-18T15:53:50;19.50;58.70
70460;DHT22;57920;54.796;9.430;2022-10-18T15:58:55;19.50;58.60
70460;DHT22;57920;54.796;9.430;2022-10-18T16:01:26;19.50;58.50
70460;DHT22;57920;54.796;9.430;2022-10-18T16:03:54;19.50;58.50
70460;DHT22;57920;54.796;9.430;2022-10-18T16:06:20;19.50;58.40
70460;DHT22;57920;54.796;9.430;2022-10-18T16:08:48;19.50;58.40
70460;DHT22;57920;54.796;9.430;2022-10-18T16:11:16;19.50;58.40
70460;DHT22;57920;54.796;9.430;2022-10-18T16:13:42;19.50;58.40
70460;DHT22;57920;54.796;9.430;2022-10-18T16:16:20;19.50;58.30
70460;DHT22;57920;54.796;9.430;2022-10-18T16:18:46;19.50;58.30
70460;DHT22;57920;54.796;9.430;2022-10-18T16:21:22;19.50;58.30
70460;DHT22;57920;54.796;9.430;2022-10-18T16:23:48;19.50;58.30
70460;DHT22;57920;54.796;9.430;2022-10-18T16:26:15;19.50;58.20
70460;DHT22;57920;54.796;9.430;2022-10-18T16:28:42;19.50;58.30
70460;DHT22;57920;54.796;9.430;2022-10-18T16:31:13;19.50;58.20
70460;DHT22;57920;54.796;9.430;2022-10-18T16:33:39;19.50;58.20
70460;DHT22;57920;54.796;9.430;2022-10-18T16:36:05;19.50;58.30
70460;DHT22;57920;54.796;9.430;2022-10-18T16:38:34;19.50;58.20
70460;DHT22;57920;54.796;9.430;2022-10-18T16:41:01;19.50;58.20
70460;DHT22;57920;54.796;9.430;2022-10-18T16:43:27;19.50;58.30
70460;DHT22;57920;54.796;9.430;2022-10-18T16:45:53;19.50;58.30
70460;DHT22;57920;54.796;9.430;2022-10-18T16:48:21;19.50;58.30
70460;DHT22;57920;54.796;9.430;2022-10-18T16:50:47;19.50;58.30
70460;DHT22;57920;54.796;9.430;2022-10-18T16:53:14;19.50;58.20
70460;DHT22;57920;54.796;9.430;2022-10-18T16:55:40;19.50;58.30
70460;DHT22;57920;54.796;9.430;2022-10-18T16:58:07;19.50;58.20
70460;DHT22;57920;54.796;9.430;2022-10-18T17:00:38;19.50;58.20
70460;DHT22;57920;54.796;9.430;2022-10-18T17:03:05;19.50;58.20
70460;DHT22;57920;54.796;9.430;2022-10-18T17:05:31;19.50;58.30
70460;DHT22;57920;54.796;9.430;2022-10-18T17:07:56;19.50;58.20
70460;DHT22;57920;54.796;9.430;2022-10-18T17:10:22;19.50;58.20
70460;DHT22;57920;54.796;9.430;2022-10-18T17:12:49;19.50;58.20
70460;DHT22;57920;54.796;9.430;2022-10-18T17:15:16;19.50;58.20
70460;DHT22;57920;54.796;9.430;2022-10-18T17:17:41;19.50;58.20
70460;DHT22;57920;54.796;9.430;2022-10-18T17:20:22;19.50;58.20
70460;DHT22;57920;54.796;9.430;2022-10-18T17:22:48;19.50;58.20
70460;DHT22;57920;54.796;9.430;2022-10-18T17:25:15;19.50;58.20
70460;DHT22;57920;54.796;9.430;2022-10-18T17:27:41;19.40;58.20
70460;DHT22;57920;54.796;9.430;2022-10-18T17:30:08;19.40;58.10
70460;DHT22;57920;54.796;9.430;2022-10-18T17:32:33;19.40;58.20
70460;DHT22;57920;54.796;9.430;2022-10-18T17:34:59;19.40;58.10
70460;DHT22;57920;54.796;9.430;2022-10-18T17:37:25;19.40;58.10
70460;DHT22;57920;54.796;9.430;2022-10-18T17:39:50;19.40;58.10
70460;DHT22;57920;54.796;9.430;2022-10-18T17:42:16;19.40;58.10
70460;DHT22;57920;54.796;9.430;2022-10-18T17:44:41;19.40;58.20
70460;DHT22;57920;54.796;9.430;2022-10-18T17:47:08;19.40;58.20
70460;DHT22;57920;54.796;9.430;2022-10-18T17:49:58;19.40;58.20
70460;DHT22;57920;54.796;9.430;2022-10-18T17:52:24;19.40;58.20
70460;DHT22;57920;54.796;9.430;2022-10-18T17:54:49;19.40;58.20
70460;DHT22;57920;54.796;9.430;2022-10-18T17:57:15;19.40;58.30
70460;DHT22;57920;54.796;9.430;2022-10-18T17:59:41;19.40;58.20
70460;DHT22;57920;54.796;9.430;2022-10-18T18:02:07;19.40;58.30
70460;DHT22;57920;54.796;9.430;2022-10-18T18:04:33;19.30;58.30
70460;DHT22;57920;54.796;9.430;2022-10-18T18:06:59;19.30;58.30
70460;DHT22;57920;54.796;9.430;2022-10-18T18:09:24;19.40;58.30
70460;DHT22;57920;54.796;9.430;2022-10-18T18:11:51;19.40;58.30
70460;DHT22;57920;54.796;9.430;2022-10-18T18:14:18;19.40;58.30
70460;DHT22;57920;54.796;9.430;2022-10-18T18:16:45;19.30;58.30
70460;DHT22;57920;54.796;9.430;2022-10-18T18:19:11;19.30;58.30
70460;DHT22;57920;54.796;9.430;2022-10-18T18:21:37;19.30;58.30
70460;DHT22;57920;54.796;9.430;2022-10-18T18:24:03;19.30;58.40
70460;DHT22;57920;54.796;9.430;2022-10-18T18:26:33;19.30;58.30
70460;DHT22;57920;54.796;9.430;2022-10-18T18:29:00;19.30;58.40
70460;DHT22;57920;54.796;9.430;2022-10-18T18:31:26;19.30;58.40
70460;DHT22;57920;54.796;9.430;2022-10-18T18:33:54;19.30;58.40